Weather History for Centralia, IL

Change the Weather History Date:

Sunday, November 3, 2013

  Actual Average (KSLO) Record (KSLO)
Temperature  
Mean Temperature 46 °F -  
Max Temperature 59 °F 59 °F 80 °F (1987)
Min Temperature 32 °F 39 °F 17 °F (1991)
Degree Days  
Heating Degree Days 20    
Moisture  
Dew Point 35 °F    
Average Humidity 68    
Maximum Humidity 98    
Minimum Humidity 35    
Precipitation  
Precipitation 0.00 in - - ()
Sea Level Pressure  
Sea Level Pressure 30.24 in    
Wind  
Wind Speed 2 mph (SE)    
Max Wind Speed 12 mph    
Max Gust Speed -    
Visibility 8 miles    
Events Fog    
Averages and records for this station are not official NWS values.
T = Trace of Precipitation, MM = Missing Value Source: NWS Daily Summary

Daily Weather History Graph

Daily Weather History Graph

Search for Another Location

Airport:

Trip Planner

Search our weather history database for the weather conditions in past years. The results will help you decide how hot, cold, wet, or windy it might be!

Date:

Astronomy

Nov. 03, 2013 Rise Set
Actual Time 6:25 AM CST 4:53 PM CST
Civil Twilight 5:57 AM CST 5:21 PM CST
Nautical Twilight 5:26 AM CST 5:52 PM CST
Astronomical Twilight 4:55 AM CST 6:23 PM CST
Moon 6:28 AM CST (11/3) 5:09 PM CST (11/3)
Length of Visible Light 11h 23m
Length of Day
10h 28m
New Moon, 0% of the Moon is Illuminated
Nov 3
New Moon
Nov 9
First Quarter
Nov 17
Full
Nov 25
Last Quarter
Dec 2
New

Hourly Weather History & Observations

Time (CST) Temp. Dew Point Humidity Pressure Visibility Wind Dir Wind Speed Gust Speed Precip Events Conditions
12:15 AM 38.8 °F 36.5 °F 91% 30.18 in 10.0 mi Calm Calm - N/A   Clear
12:35 AM 39.0 °F 36.7 °F 91% 30.19 in 10.0 mi Calm Calm - N/A   Clear
12:55 AM 38.5 °F 36.3 °F 92% 30.19 in 10.0 mi Calm Calm - N/A   Clear
1:15 AM 37.6 °F 35.8 °F 93% 30.19 in 7.0 mi Calm Calm - N/A   Clear
1:35 AM 37.2 °F 35.8 °F 95% 30.20 in 7.0 mi Calm Calm - N/A   Clear
1:55 AM 37.2 °F 35.6 °F 94% 30.21 in 10.0 mi Calm Calm - N/A   Clear
1:15 AM 37.2 °F 35.8 °F 95% 30.21 in 10.0 mi Calm Calm - N/A   Clear
1:35 AM 37.6 °F 35.8 °F 93% 30.21 in 10.0 mi Calm Calm - N/A   Clear
1:55 AM 37.9 °F 36.3 °F 94% 30.22 in 10.0 mi Calm Calm - N/A   Clear
2:15 AM 37.2 °F 35.8 °F 95% 30.22 in 5.0 mi Calm Calm - N/A   Clear
2:35 AM 36.7 °F 35.2 °F 95% 30.23 in 7.0 mi Calm Calm - N/A   Clear
2:55 AM 36.1 °F 34.7 °F 94% 30.22 in 1.8 mi Calm Calm - N/A   Mist
3:15 AM 35.1 °F 33.8 °F 95% 30.23 in 2.0 mi Calm Calm - N/A   Clear
3:35 AM 34.9 °F 33.8 °F 96% 30.23 in 1.5 mi Calm Calm - N/A   Mist
3:55 AM 34.7 °F 33.3 °F 94% 30.24 in 2.0 mi Calm Calm - N/A   Clear
4:15 AM 34.9 °F 33.8 °F 96% 30.25 in 0.5 mi Calm Calm - N/A Fog Fog
4:35 AM 34.5 °F 33.3 °F 95% 30.25 in 0.5 mi Calm Calm - N/A Fog Fog
4:55 AM 32.9 °F 32.0 °F 96% 30.25 in 0.5 mi Calm Calm - N/A Fog Fog
5:15 AM 32.9 °F 32.0 °F 96% 30.25 in 0.8 mi Calm Calm - N/A   Mist
5:35 AM 32.5 °F 32.0 °F 98% 30.26 in 1.0 mi Calm Calm - N/A   Mist
5:55 AM 32.9 °F 32.0 °F 96% 30.26 in 1.8 mi Calm Calm - N/A   Mist
6:15 AM 33.1 °F 32.2 °F 96% 30.27 in 1.2 mi Calm Calm - N/A   Mist
6:35 AM 32.9 °F 32.0 °F 96% 30.28 in 0.2 mi Calm Calm - N/A Fog Fog
6:55 AM 33.6 °F 32.5 °F 96% 30.28 in 1.0 mi Calm Calm - N/A   Mist
7:15 AM 34.9 °F 33.8 °F 96% 30.28 in 2.5 mi Calm Calm - N/A   Clear
7:35 AM 36.7 °F 35.6 °F 96% 30.30 in 3.0 mi Calm Calm - N/A   Clear
7:55 AM 39.7 °F 38.5 °F 95% 30.30 in 5.0 mi Calm Calm - N/A   Clear
8:15 AM 42.4 °F 41.0 °F 95% 30.31 in 10.0 mi Calm Calm - N/A   Clear
8:35 AM 45.7 °F 40.8 °F 83% 30.32 in 10.0 mi Calm Calm - N/A   Clear
8:55 AM 48.0 °F 40.8 °F 76% 30.32 in 10.0 mi Calm Calm - N/A   Clear
9:15 AM 50.4 °F 41.2 °F 71% 30.32 in 10.0 mi Calm Calm - N/A   Clear
9:35 AM 52.2 °F 38.8 °F 60% 30.32 in 10.0 mi ESE 3.5 mph - N/A   Clear
9:55 AM 53.6 °F 37.4 °F 54% 30.32 in 10.0 mi Calm Calm - N/A   Clear
10:15 AM 54.9 °F 36.9 °F 51% 30.31 in 10.0 mi ESE 5.8 mph - N/A   Clear
10:35 AM 55.9 °F 32.7 °F 41% 30.31 in 10.0 mi ESE 3.5 mph - N/A   Clear
10:55 AM 56.1 °F 33.6 °F 43% 30.30 in 10.0 mi SE 3.5 mph - N/A   Clear
11:15 AM 56.5 °F 31.6 °F 39% 30.29 in 10.0 mi South 4.6 mph - N/A   Clear
11:35 AM 57.4 °F 30.7 °F 36% 30.29 in 10.0 mi ENE 4.6 mph - N/A   Clear
11:55 AM 57.9 °F 30.6 °F 35% 30.28 in 10.0 mi SE 3.5 mph - N/A   Clear
12:15 PM 57.9 °F 31.1 °F 36% 30.27 in 10.0 mi South 4.6 mph - N/A   Clear
12:35 PM 58.3 °F 31.3 °F 36% 30.26 in 10.0 mi South 8.1 mph - N/A   Clear
12:55 PM 58.8 °F 31.3 °F 35% 30.25 in 10.0 mi SE 4.6 mph - N/A   Clear
1:15 PM 59.0 °F 32.0 °F 36% 30.25 in 10.0 mi SE 10.4 mph - N/A   Clear
1:35 PM 59.0 °F 31.8 °F 36% 30.25 in 10.0 mi South 8.1 mph - N/A   Clear
1:55 PM 59.2 °F 32.0 °F 36% 30.23 in 10.0 mi South 9.2 mph - N/A   Clear
2:15 PM 59.4 °F 32.5 °F 36% 30.23 in 10.0 mi SE 11.5 mph - N/A   Clear
2:35 PM 59.0 °F 31.8 °F 36% 30.23 in 10.0 mi SE 10.4 mph - N/A   Clear
2:55 PM 58.6 °F 32.0 °F 37% 30.22 in 10.0 mi South 9.2 mph - N/A   Clear
3:15 PM 58.8 °F 33.3 °F 38% 30.21 in 10.0 mi SE 8.1 mph - N/A   Clear
3:35 PM 58.1 °F 33.6 °F 40% 30.21 in 10.0 mi SSE 9.2 mph - N/A   Clear
3:55 PM 57.7 °F 33.1 °F 39% 30.21 in 10.0 mi SSE 8.1 mph - N/A   Clear
4:15 PM 56.5 °F 34.3 °F 43% 30.21 in 10.0 mi SSE 8.1 mph - N/A   Clear
4:35 PM 54.5 °F 34.9 °F 48% 30.20 in 10.0 mi SE 6.9 mph - N/A   Clear
4:55 PM 54.0 °F 35.2 °F 49% 30.21 in 10.0 mi ESE 4.6 mph - N/A   Clear
5:15 PM 53.2 °F 34.9 °F 50% 30.21 in 10.0 mi ESE 4.6 mph - N/A   Clear
5:35 PM 51.6 °F 35.2 °F 54% 30.22 in 10.0 mi Calm Calm - N/A   Clear
5:55 PM 51.4 °F 35.1 °F 54% 30.22 in 10.0 mi ESE 3.5 mph - N/A   Clear
6:15 PM 50.7 °F 34.9 °F 55% 30.22 in 10.0 mi East 3.5 mph - N/A   Clear
6:35 PM 50.0 °F 34.9 °F 56% 30.23 in 10.0 mi East 3.5 mph - N/A   Clear
6:55 PM 50.0 °F 34.7 °F 56% 30.23 in 10.0 mi ESE 3.5 mph - N/A   Clear
7:15 PM 49.3 °F 34.9 °F 58% 30.23 in 10.0 mi East 3.5 mph - N/A   Clear
7:35 PM 48.9 °F 35.4 °F 60% 30.23 in 10.0 mi ESE 4.6 mph - N/A   Clear
7:55 PM 48.4 °F 35.8 °F 62% 30.23 in 10.0 mi ESE 5.8 mph - N/A   Clear
8:15 PM 49.1 °F 36.3 °F 61% 30.23 in 10.0 mi ESE 6.9 mph - N/A   Clear
8:35 PM 48.7 °F 36.5 °F 63% 30.24 in 10.0 mi ESE 6.9 mph - N/A   Clear
8:55 PM 49.1 °F 36.9 °F 63% 30.24 in 10.0 mi SE 10.4 mph - N/A   Clear
9:15 PM 48.9 °F 37.0 °F 64% 30.23 in 10.0 mi ESE 8.1 mph - N/A   Clear
9:35 PM 49.3 °F 36.9 °F 62% 30.22 in 10.0 mi ESE 6.9 mph - N/A   Clear
9:55 PM 50.0 °F 36.5 °F 60% 30.22 in 10.0 mi ESE 6.9 mph - N/A   Clear
10:15 PM 50.2 °F 36.7 °F 60% 30.22 in 10.0 mi SE 5.8 mph - N/A   Clear
10:35 PM 50.5 °F 36.5 °F 59% 30.22 in 10.0 mi SE 9.2 mph - N/A   Clear
10:55 PM 50.7 °F 36.5 °F 58% 30.21 in 10.0 mi SE 9.2 mph - N/A   Clear